Flugplatz Altenstadt Army Airfield

Bericht für ETHA

vom 08.03. um 17:20 UTC

Wind 6 kt aus 50°

Sichtweite 10 km oder mehr

aufgebrochene Bewölkung in 3500 ft

aufgelockert bewölkt in 25000 ft

Temperatur 1.0°C

Taupunkt -4.0°C

Luftfeuchtigkeit 69%

Luftdruck 1017 hPa

ETHA 081720Z 05006KT 9999 BKN035 SCT250 01/M04 Q1017 BLACKBLU

Prognose für ETHA

vom 08.03. um 11:44 UTC

Zwischen 12:00 UTC und 21:00 UTC

Wind 8 kt aus 60°

Sichtweite 10 km oder mehr

keine signifikanten Wettererscheinungen

gering bewölkt in 2000 ft

aufgelockert bewölkt in 4000 ft

TAF COR ETHA 081144Z 0812/0821 06008KT 9999 NSW FEW020 SCT040
Impressum